This is the latest recevied weather packets stored in our database for station/object HK4RAU-90. If no packets are shown the sender has not sent any weather packets the latest 10 day(s).
| Time | Temp. | Humidity | Pressure | Rain* | Wind** | Luminosity | Snow |
|---|---|---|---|---|---|---|---|
| 1777594683 | 23.33° C | 73% | 1007 hPa | 0 mm | - | - | - |
| 1777594501 | 23.33° C | 73% | 1007 hPa | 0 mm | - | - | - |
| 1777594319 | 23.89° C | 73% | 1007 hPa | 0 mm | - | - | - |
| 1777594138 | 23.89° C | 73% | 1007 hPa | 0 mm | - | - | - |
| 1777593956 | 23.89° C | 73% | 1007 hPa | 0 mm | - | - | - |
| 1777593775 | 24.44° C | 73% | 1007 hPa | 0 mm | - | - | - |
| 1777593592 | 24.44° C | 73% | 1007 hPa | 0 mm | - | - | - |
| 1777593406 | 24.44° C | 73% | 1007 hPa | 0 mm | - | - | - |
| 1777593225 | 25° C | 73% | 1007 hPa | 0 mm | - | - | - |
| 1777593043 | 25° C | 73% | 1007 hPa | 0 mm | - | - | - |
| 1777592862 | 24.44° C | 73% | 1007 hPa | 0 mm | - | - | - |
| 1777592681 | 25° C | 73% | 1007 hPa | 0 mm | - | - | - |
| 1777592499 | 25° C | 73% | 1007 hPa | 0 mm | - | - | - |
| 1777592138 | 25.56° C | 73% | 1006 hPa | 0 mm | - | - | - |
| 1777591956 | 25° C | 73% | 1007 hPa | 0 mm | - | - | - |
| 1777591770 | 25.56° C | 73% | 1006 hPa | 0 mm | - | - | - |
| 1777591589 | 26.11° C | 73% | 1006 hPa | 0 mm | - | - | - |
| 1777591408 | 26.11° C | 69% | 1006 hPa | 0 mm | - | - | - |
| 1777591226 | 26.11° C | 73% | 1006 hPa | 0 mm | - | - | - |
| 1777591045 | 22.78° C | 68% | 1006 hPa | 0 mm | - | - | - |
| 1777590863 | 26.11° C | 69% | 1006 hPa | 0 mm | - | - | - |
| 1777590650 | 22.78° C | 68% | 1006 hPa | 0 mm | - | - | - |
| 1777590453 | 22.78° C | 68% | 1006 hPa | 0 mm | - | - | - |
| 1777590272 | 23.33° C | 68% | 1006 hPa | 0 mm | - | - | - |
| 1777590086 | 23.89° C | 68% | 1006 hPa | 0 mm | - | - | - |
* Rain latest hour (hover to see other rain measurements)
** Current wind speed in m/s (hover to see current wind gust speed)